sensor_id;sensor_type;location;lat;lon;timestamp;temperature;humidity
68189;DHT22;66299;47.514;19.218;2023-10-31T00:02:03;12.97;88.89
68189;DHT22;66299;47.514;19.218;2023-10-31T00:04:32;12.99;88.46
68189;DHT22;66299;47.514;19.218;2023-10-31T00:07:00;13.03;88.26
68189;DHT22;66299;47.514;19.218;2023-10-31T00:09:30;13.03;88.16
68189;DHT22;66299;47.514;19.218;2023-10-31T00:11:59;12.93;88.92
68189;DHT22;66299;47.514;19.218;2023-10-31T00:14:31;12.92;88.67
68189;DHT22;66299;47.514;19.218;2023-10-31T00:17:00;12.89;88.64
68189;DHT22;66299;47.514;19.218;2023-10-31T00:19:28;12.86;89.12
68189;DHT22;66299;47.514;19.218;2023-10-31T00:21:57;12.83;89.04
68189;DHT22;66299;47.514;19.218;2023-10-31T00:24:26;12.79;89.01
68189;DHT22;66299;47.514;19.218;2023-10-31T00:26:54;12.86;88.14
68189;DHT22;66299;47.514;19.218;2023-10-31T00:29:23;12.89;88.33
68189;DHT22;66299;47.514;19.218;2023-10-31T00:31:53;12.84;88.39
68189;DHT22;66299;47.514;19.218;2023-10-31T00:34:22;12.83;88.34
68189;DHT22;66299;47.514;19.218;2023-10-31T00:36:51;12.79;88.65
68189;DHT22;66299;47.514;19.218;2023-10-31T00:39:19;12.76;88.50
68189;DHT22;66299;47.514;19.218;2023-10-31T00:41:49;12.77;88.35
68189;DHT22;66299;47.514;19.218;2023-10-31T00:44:18;12.72;88.54
68189;DHT22;66299;47.514;19.218;2023-10-31T00:46:48;12.73;88.42
68189;DHT22;66299;47.514;19.218;2023-10-31T00:49:20;12.66;88.72
68189;DHT22;66299;47.514;19.218;2023-10-31T00:51:51;12.63;88.47
68189;DHT22;66299;47.514;19.218;2023-10-31T00:54:19;12.69;88.00
68189;DHT22;66299;47.514;19.218;2023-10-31T00:56:48;12.66;88.28
68189;DHT22;66299;47.514;19.218;2023-10-31T00:59:18;12.60;88.45
68189;DHT22;66299;47.514;19.218;2023-10-31T01:01:48;12.57;88.77
68189;DHT22;66299;47.514;19.218;2023-10-31T01:04:21;12.57;88.63
68189;DHT22;66299;47.514;19.218;2023-10-31T01:06:51;12.56;88.74
68189;DHT22;66299;47.514;19.218;2023-10-31T01:09:19;12.56;88.63
68189;DHT22;66299;47.514;19.218;2023-10-31T01:11:48;12.57;88.72
68189;DHT22;66299;47.514;19.218;2023-10-31T01:14:18;12.60;88.39
68189;DHT22;66299;47.514;19.218;2023-10-31T01:16:52;12.56;88.64
68189;DHT22;66299;47.514;19.218;2023-10-31T01:19:23;12.55;88.48
68189;DHT22;66299;47.514;19.218;2023-10-31T01:21:52;12.55;88.74
68189;DHT22;66299;47.514;19.218;2023-10-31T01:24:20;12.57;88.51
68189;DHT22;66299;47.514;19.218;2023-10-31T01:26:51;12.59;88.27
68189;DHT22;66299;47.514;19.218;2023-10-31T01:29:20;12.56;88.59
68189;DHT22;66299;47.514;19.218;2023-10-31T01:31:48;12.56;88.57
68189;DHT22;66299;47.514;19.218;2023-10-31T01:34:29;12.52;88.66
68189;DHT22;66299;47.514;19.218;2023-10-31T01:37:01;12.50;88.23
68189;DHT22;66299;47.514;19.218;2023-10-31T01:39:30;12.50;88.51
68189;DHT22;66299;47.514;19.218;2023-10-31T01:41:58;12.53;88.87
68189;DHT22;66299;47.514;19.218;2023-10-31T01:44:27;12.56;88.68
68189;DHT22;66299;47.514;19.218;2023-10-31T01:46:56;12.65;88.67
68189;DHT22;66299;47.514;19.218;2023-10-31T01:49:26;12.63;88.13
68189;DHT22;66299;47.514;19.218;2023-10-31T01:51:58;12.62;88.49
68189;DHT22;66299;47.514;19.218;2023-10-31T01:54:27;12.73;88.33
68189;DHT22;66299;47.514;19.218;2023-10-31T01:56:56;12.69;88.42
68189;DHT22;66299;47.514;19.218;2023-10-31T01:59:26;12.73;88.24
68189;DHT22;66299;47.514;19.218;2023-10-31T02:01:56;12.77;87.79
68189;DHT22;66299;47.514;19.218;2023-10-31T02:04:26;12.77;88.41
68189;DHT22;66299;47.514;19.218;2023-10-31T02:06:59;12.80;87.92
68189;DHT22;66299;47.514;19.218;2023-10-31T02:09:28;12.83;88.28
68189;DHT22;66299;47.514;19.218;2023-10-31T02:11:57;12.73;88.60
68189;DHT22;66299;47.514;19.218;2023-10-31T02:14:28;12.76;88.03
68189;DHT22;66299;47.514;19.218;2023-10-31T02:16:56;12.73;88.43
68189;DHT22;66299;47.514;19.218;2023-10-31T02:19:26;12.75;88.41
68189;DHT22;66299;47.514;19.218;2023-10-31T02:21:56;12.70;88.82
68189;DHT22;66299;47.514;19.218;2023-10-31T02:24:24;12.83;87.90
68189;DHT22;66299;47.514;19.218;2023-10-31T02:26:56;12.82;88.13
68189;DHT22;66299;47.514;19.218;2023-10-31T02:29:24;12.80;87.82
68189;DHT22;66299;47.514;19.218;2023-10-31T02:31:54;12.82;87.51
68189;DHT22;66299;47.514;19.218;2023-10-31T02:34:26;12.90;87.22
68189;DHT22;66299;47.514;19.218;2023-10-31T02:36:57;13.02;86.62
68189;DHT22;66299;47.514;19.218;2023-10-31T02:39:27;13.06;86.25
68189;DHT22;66299;47.514;19.218;2023-10-31T02:41:55;13.13;86.36
68189;DHT22;66299;47.514;19.218;2023-10-31T02:44:28;13.06;86.36
68189;DHT22;66299;47.514;19.218;2023-10-31T02:46:56;13.10;86.56
68189;DHT22;66299;47.514;19.218;2023-10-31T02:49:25;13.08;86.57
68189;DHT22;66299;47.514;19.218;2023-10-31T02:52:03;13.11;86.58
68189;DHT22;66299;47.514;19.218;2023-10-31T02:54:33;13.17;85.80
68189;DHT22;66299;47.514;19.218;2023-10-31T02:57:02;13.17;85.96
68189;DHT22;66299;47.514;19.218;2023-10-31T02:59:31;13.11;86.35
68189;DHT22;66299;47.514;19.218;2023-10-31T03:02:00;13.20;85.52
68189;DHT22;66299;47.514;19.218;2023-10-31T03:04:28;13.21;85.62
68189;DHT22;66299;47.514;19.218;2023-10-31T03:06:57;13.24;85.58
68189;DHT22;66299;47.514;19.218;2023-10-31T03:09:35;13.24;85.87
68189;DHT22;66299;47.514;19.218;2023-10-31T03:12:04;13.28;85.07
68189;DHT22;66299;47.514;19.218;2023-10-31T03:14:33;13.25;85.79
68189;DHT22;66299;47.514;19.218;2023-10-31T03:17:03;13.20;86.24
68189;DHT22;66299;47.514;19.218;2023-10-31T03:19:36;13.18;86.08
68189;DHT22;66299;47.514;19.218;2023-10-31T03:22:05;13.13;86.99
68189;DHT22;66299;47.514;19.218;2023-10-31T03:24:37;13.14;87.01
68189;DHT22;66299;47.514;19.218;2023-10-31T03:27:07;13.15;86.56
68189;DHT22;66299;47.514;19.218;2023-10-31T03:29:35;13.14;86.92
68189;DHT22;66299;47.514;19.218;2023-10-31T03:32:05;13.14;87.05
68189;DHT22;66299;47.514;19.218;2023-10-31T03:34:34;13.13;88.21
68189;DHT22;66299;47.514;19.218;2023-10-31T03:37:04;13.03;89.15
68189;DHT22;66299;47.514;19.218;2023-10-31T03:39:33;12.99;89.60
68189;DHT22;66299;47.514;19.218;2023-10-31T03:42:03;12.92;90.36
68189;DHT22;66299;47.514;19.218;2023-10-31T03:44:33;12.86;91.03
68189;DHT22;66299;47.514;19.218;2023-10-31T03:47:04;12.80;91.04
68189;DHT22;66299;47.514;19.218;2023-10-31T03:49:33;12.83;90.81
68189;DHT22;66299;47.514;19.218;2023-10-31T03:52:02;12.80;90.42
68189;DHT22;66299;47.514;19.218;2023-10-31T03:54:33;12.70;91.87
68189;DHT22;66299;47.514;19.218;2023-10-31T03:57:09;12.69;92.21
68189;DHT22;66299;47.514;19.218;2023-10-31T03:59:37;12.66;92.01
68189;DHT22;66299;47.514;19.218;2023-10-31T04:02:06;12.60;93.85
68189;DHT22;66299;47.514;19.218;2023-10-31T04:04:35;12.50;95.26
68189;DHT22;66299;47.514;19.218;2023-10-31T04:07:05;12.42;96.47
68189;DHT22;66299;47.514;19.218;2023-10-31T04:09:34;12.35;96.11
68189;DHT22;66299;47.514;19.218;2023-10-31T04:12:07;12.32;95.19
68189;DHT22;66299;47.514;19.218;2023-10-31T04:14:38;12.36;94.55
68189;DHT22;66299;47.514;19.218;2023-10-31T04:17:07;12.32;95.55
68189;DHT22;66299;47.514;19.218;2023-10-31T04:19:37;12.26;96.08
68189;DHT22;66299;47.514;19.218;2023-10-31T04:22:06;12.21;97.00
68189;DHT22;66299;47.514;19.218;2023-10-31T04:24:34;12.15;97.37
68189;DHT22;66299;47.514;19.218;2023-10-31T04:27:03;12.11;97.69
68189;DHT22;66299;47.514;19.218;2023-10-31T04:29:33;12.04;97.81
68189;DHT22;66299;47.514;19.218;2023-10-31T04:32:02;11.97;98.21
68189;DHT22;66299;47.514;19.218;2023-10-31T04:34:31;12.01;97.79
68189;DHT22;66299;47.514;19.218;2023-10-31T04:37:00;11.95;98.22
68189;DHT22;66299;47.514;19.218;2023-10-31T04:39:29;11.95;98.09
68189;DHT22;66299;47.514;19.218;2023-10-31T04:41:57;11.95;97.91
68189;DHT22;66299;47.514;19.218;2023-10-31T04:44:26;11.99;96.98
68189;DHT22;66299;47.514;19.218;2023-10-31T04:46:58;11.98;97.60
68189;DHT22;66299;47.514;19.218;2023-10-31T04:49:27;11.94;98.04
68189;DHT22;66299;47.514;19.218;2023-10-31T04:51:56;12.04;96.64
68189;DHT22;66299;47.514;19.218;2023-10-31T04:54:26;11.98;97.02
68189;DHT22;66299;47.514;19.218;2023-10-31T04:56:55;11.93;97.75
68189;DHT22;66299;47.514;19.218;2023-10-31T04:59:23;11.86;98.11
68189;DHT22;66299;47.514;19.218;2023-10-31T05:01:52;11.87;98.30
68189;DHT22;66299;47.514;19.218;2023-10-31T05:04:24;11.86;97.95
68189;DHT22;66299;47.514;19.218;2023-10-31T05:06:52;11.84;97.79
68189;DHT22;66299;47.514;19.218;2023-10-31T05:09:23;11.91;97.81
68189;DHT22;66299;47.514;19.218;2023-10-31T05:11:52;11.88;97.83
68189;DHT22;66299;47.514;19.218;2023-10-31T05:14:23;11.78;98.21
68189;DHT22;66299;47.514;19.218;2023-10-31T05:16:51;11.76;98.28
68189;DHT22;66299;47.514;19.218;2023-10-31T05:19:20;11.78;98.02
68189;DHT22;66299;47.514;19.218;2023-10-31T05:21:50;11.78;97.58
68189;DHT22;66299;47.514;19.218;2023-10-31T05:24:18;11.78;97.80
68189;DHT22;66299;47.514;19.218;2023-10-31T05:26:48;11.80;97.45
68189;DHT22;66299;47.514;19.218;2023-10-31T05:29:17;11.81;97.31
68189;DHT22;66299;47.514;19.218;2023-10-31T05:31:48;11.93;97.36
68189;DHT22;66299;47.514;19.218;2023-10-31T05:34:17;11.88;98.07
68189;DHT22;66299;47.514;19.218;2023-10-31T05:36:45;11.91;97.02
68189;DHT22;66299;47.514;19.218;2023-10-31T05:39:16;12.05;96.94
68189;DHT22;66299;47.514;19.218;2023-10-31T05:41:44;12.11;95.51
68189;DHT22;66299;47.514;19.218;2023-10-31T05:44:13;12.25;95.83
68189;DHT22;66299;47.514;19.218;2023-10-31T05:46:42;12.39;95.07
68189;DHT22;66299;47.514;19.218;2023-10-31T05:49:11;12.44;94.43
68189;DHT22;66299;47.514;19.218;2023-10-31T05:51:40;12.24;97.49
68189;DHT22;66299;47.514;19.218;2023-10-31T05:54:09;12.17;98.69
68189;DHT22;66299;47.514;19.218;2023-10-31T05:56:40;12.20;97.48
68189;DHT22;66299;47.514;19.218;2023-10-31T05:59:09;12.22;97.55
68189;DHT22;66299;47.514;19.218;2023-10-31T06:01:39;12.08;99.06
68189;DHT22;66299;47.514;19.218;2023-10-31T06:04:08;12.05;99.41
68189;DHT22;66299;47.514;19.218;2023-10-31T06:06:38;12.04;99.45
68189;DHT22;66299;47.514;19.218;2023-10-31T06:09:07;12.04;99.28
68189;DHT22;66299;47.514;19.218;2023-10-31T06:11:41;12.04;99.23
68189;DHT22;66299;47.514;19.218;2023-10-31T06:14:11;12.07;98.51
68189;DHT22;66299;47.514;19.218;2023-10-31T06:16:40;12.11;98.43
68189;DHT22;66299;47.514;19.218;2023-10-31T06:19:10;12.10;98.36
68189;DHT22;66299;47.514;19.218;2023-10-31T06:21:39;12.08;98.32
68189;DHT22;66299;47.514;19.218;2023-10-31T06:24:08;12.26;96.35
68189;DHT22;66299;47.514;19.218;2023-10-31T06:26:37;12.46;94.84
68189;DHT22;66299;47.514;19.218;2023-10-31T06:29:10;12.62;93.75
68189;DHT22;66299;47.514;19.218;2023-10-31T06:31:58;12.60;94.13
68189;DHT22;66299;47.514;19.218;2023-10-31T06:34:28;12.77;93.22
68189;DHT22;66299;47.514;19.218;2023-10-31T06:37:00;12.76;93.52
68189;DHT22;66299;47.514;19.218;2023-10-31T06:39:29;12.94;92.37
68189;DHT22;66299;47.514;19.218;2023-10-31T06:41:58;12.93;92.39
68189;DHT22;66299;47.514;19.218;2023-10-31T06:44:30;13.00;91.90
68189;DHT22;66299;47.514;19.218;2023-10-31T06:46:58;13.11;91.31
68189;DHT22;66299;47.514;19.218;2023-10-31T06:49:27;13.10;91.80
68189;DHT22;66299;47.514;19.218;2023-10-31T06:51:56;13.11;92.34
68189;DHT22;66299;47.514;19.218;2023-10-31T06:54:27;13.15;90.93
68189;DHT22;66299;47.514;19.218;2023-10-31T06:56:56;13.31;89.81
68189;DHT22;66299;47.514;19.218;2023-10-31T06:59:25;13.24;90.97
68189;DHT22;66299;47.514;19.218;2023-10-31T07:02:00;13.25;89.52
68189;DHT22;66299;47.514;19.218;2023-10-31T07:04:29;13.34;89.99
68189;DHT22;66299;47.514;19.218;2023-10-31T07:06:58;13.21;91.53
68189;DHT22;66299;47.514;19.218;2023-10-31T07:09:27;13.35;88.84
68189;DHT22;66299;47.514;19.218;2023-10-31T07:11:56;13.48;88.22
68189;DHT22;66299;47.514;19.218;2023-10-31T07:14:25;13.48;89.72
68189;DHT22;66299;47.514;19.218;2023-10-31T07:16:53;13.66;88.48
68189;DHT22;66299;47.514;19.218;2023-10-31T07:19:26;13.66;88.40
68189;DHT22;66299;47.514;19.218;2023-10-31T07:21:55;13.59;90.48
68189;DHT22;66299;47.514;19.218;2023-10-31T07:24:24;13.48;91.98
68189;DHT22;66299;47.514;19.218;2023-10-31T07:26:55;13.45;93.29
68189;DHT22;66299;47.514;19.218;2023-10-31T07:29:24;13.59;91.95
68189;DHT22;66299;47.514;19.218;2023-10-31T07:31:53;13.82;89.98
68189;DHT22;66299;47.514;19.218;2023-10-31T07:34:21;13.82;91.60
68189;DHT22;66299;47.514;19.218;2023-10-31T07:36:53;13.93;89.84
68189;DHT22;66299;47.514;19.218;2023-10-31T07:39:25;13.96;89.90
68189;DHT22;66299;47.514;19.218;2023-10-31T07:41:55;14.02;90.06
68189;DHT22;66299;47.514;19.218;2023-10-31T07:44:23;14.21;88.25
68189;DHT22;66299;47.514;19.218;2023-10-31T07:46:52;14.37;87.76
68189;DHT22;66299;47.514;19.218;2023-10-31T07:49:21;14.45;86.48
68189;DHT22;66299;47.514;19.218;2023-10-31T07:51:52;14.51;88.46
68189;DHT22;66299;47.514;19.218;2023-10-31T07:54:21;14.49;87.33
68189;DHT22;66299;47.514;19.218;2023-10-31T07:56:50;14.49;88.38
68189;DHT22;66299;47.514;19.218;2023-10-31T07:59:18;14.51;87.60
68189;DHT22;66299;47.514;19.218;2023-10-31T08:01:49;14.67;87.60
68189;DHT22;66299;47.514;19.218;2023-10-31T08:04:21;14.69;88.56
68189;DHT22;66299;47.514;19.218;2023-10-31T08:06:51;14.78;86.88
68189;DHT22;66299;47.514;19.218;2023-10-31T08:09:20;14.78;87.57
68189;DHT22;66299;47.514;19.218;2023-10-31T08:11:50;14.91;87.05
68189;DHT22;66299;47.514;19.218;2023-10-31T08:14:18;15.05;86.14
68189;DHT22;66299;47.514;19.218;2023-10-31T08:16:52;15.44;84.61
68189;DHT22;66299;47.514;19.218;2023-10-31T08:19:22;15.68;84.44
68189;DHT22;66299;47.514;19.218;2023-10-31T08:21:52;16.05;81.53
68189;DHT22;66299;47.514;19.218;2023-10-31T08:24:23;16.16;78.84
68189;DHT22;66299;47.514;19.218;2023-10-31T08:26:51;16.25;79.52
68189;DHT22;66299;47.514;19.218;2023-10-31T08:29:20;16.23;80.52
68189;DHT22;66299;47.514;19.218;2023-10-31T08:31:49;16.26;80.64
68189;DHT22;66299;47.514;19.218;2023-10-31T08:34:19;16.22;80.50
68189;DHT22;66299;47.514;19.218;2023-10-31T08:36:49;16.25;81.62
68189;DHT22;66299;47.514;19.218;2023-10-31T08:39:22;16.21;81.25
68189;DHT22;66299;47.514;19.218;2023-10-31T08:41:52;16.18;79.68
68189;DHT22;66299;47.514;19.218;2023-10-31T08:44:20;16.32;79.40
68189;DHT22;66299;47.514;19.218;2023-10-31T08:46:49;16.63;78.84
68189;DHT22;66299;47.514;19.218;2023-10-31T08:49:18;16.67;76.55
68189;DHT22;66299;47.514;19.218;2023-10-31T08:51:50;16.66;76.76
68189;DHT22;66299;47.514;19.218;2023-10-31T08:54:21;16.87;75.57
68189;DHT22;66299;47.514;19.218;2023-10-31T08:56:49;16.98;75.65
68189;DHT22;66299;47.514;19.218;2023-10-31T08:59:18;17.14;73.85
68189;DHT22;66299;47.514;19.218;2023-10-31T09:01:47;17.18;74.20
68189;DHT22;66299;47.514;19.218;2023-10-31T09:04:15;17.24;75.63
68189;DHT22;66299;47.514;19.218;2023-10-31T09:06:44;17.32;75.62
68189;DHT22;66299;47.514;19.218;2023-10-31T09:09:14;17.29;75.37
68189;DHT22;66299;47.514;19.218;2023-10-31T09:11:43;17.39;75.98
68189;DHT22;66299;47.514;19.218;2023-10-31T09:14:12;17.53;72.51
68189;DHT22;66299;47.514;19.218;2023-10-31T09:16:41;17.57;70.72
68189;DHT22;66299;47.514;19.218;2023-10-31T09:19:10;17.62;73.30
68189;DHT22;66299;47.514;19.218;2023-10-31T09:21:39;17.63;74.03
68189;DHT22;66299;47.514;19.218;2023-10-31T09:24:09;17.79;73.27
68189;DHT22;66299;47.514;19.218;2023-10-31T09:26:41;17.90;73.48
68189;DHT22;66299;47.514;19.218;2023-10-31T09:29:12;17.96;72.10
68189;DHT22;66299;47.514;19.218;2023-10-31T09:31:56;17.89;73.25
68189;DHT22;66299;47.514;19.218;2023-10-31T09:34:26;18.01;70.53
68189;DHT22;66299;47.514;19.218;2023-10-31T09:36:55;18.03;70.01
68189;DHT22;66299;47.514;19.218;2023-10-31T09:39:24;18.18;66.41
68189;DHT22;66299;47.514;19.218;2023-10-31T09:41:55;18.17;66.37
68189;DHT22;66299;47.514;19.218;2023-10-31T09:44:27;18.00;68.87
68189;DHT22;66299;47.514;19.218;2023-10-31T09:46:56;18.15;68.08
68189;DHT22;66299;47.514;19.218;2023-10-31T09:49:26;18.08;68.84
68189;DHT22;66299;47.514;19.218;2023-10-31T09:51:55;18.14;69.06
68189;DHT22;66299;47.514;19.218;2023-10-31T09:54:26;18.30;67.34
68189;DHT22;66299;47.514;19.218;2023-10-31T09:56:57;18.32;67.08
68189;DHT22;66299;47.514;19.218;2023-10-31T09:59:27;18.38;68.70
68189;DHT22;66299;47.514;19.218;2023-10-31T10:01:56;18.55;69.02
68189;DHT22;66299;47.514;19.218;2023-10-31T10:04:25;18.56;69.21
68189;DHT22;66299;47.514;19.218;2023-10-31T10:07:01;18.72;68.33
68189;DHT22;66299;47.514;19.218;2023-10-31T10:09:29;18.86;67.10
68189;DHT22;66299;47.514;19.218;2023-10-31T10:12:01;18.92;68.55
68189;DHT22;66299;47.514;19.218;2023-10-31T10:14:32;18.93;66.72
68189;DHT22;66299;47.514;19.218;2023-10-31T10:17:00;18.90;68.87
68189;DHT22;66299;47.514;19.218;2023-10-31T10:19:31;18.99;67.50
68189;DHT22;66299;47.514;19.218;2023-10-31T10:21:59;18.83;66.20
68189;DHT22;66299;47.514;19.218;2023-10-31T10:24:29;19.04;66.40
68189;DHT22;66299;47.514;19.218;2023-10-31T10:26:57;19.02;64.96
68189;DHT22;66299;47.514;19.218;2023-10-31T10:29:26;19.06;66.32
68189;DHT22;66299;47.514;19.218;2023-10-31T10:32:00;19.20;65.33
68189;DHT22;66299;47.514;19.218;2023-10-31T10:34:31;19.16;65.14
68189;DHT22;66299;47.514;19.218;2023-10-31T10:37:00;19.17;65.45
68189;DHT22;66299;47.514;19.218;2023-10-31T10:39:29;19.28;67.89
68189;DHT22;66299;47.514;19.218;2023-10-31T10:42:01;19.13;68.02
68189;DHT22;66299;47.514;19.218;2023-10-31T10:44:35;19.23;65.36
68189;DHT22;66299;47.514;19.218;2023-10-31T10:47:08;19.47;67.22
68189;DHT22;66299;47.514;19.218;2023-10-31T10:49:41;19.50;64.45
68189;DHT22;66299;47.514;19.218;2023-10-31T10:52:18;19.50;66.40
68189;DHT22;66299;47.514;19.218;2023-10-31T10:54:53;19.59;66.17
68189;DHT22;66299;47.514;19.218;2023-10-31T10:57:25;19.44;65.01
68189;DHT22;66299;47.514;19.218;2023-10-31T11:00:04;19.53;63.31
68189;DHT22;66299;47.514;19.218;2023-10-31T11:02:39;19.58;62.52
68189;DHT22;66299;47.514;19.218;2023-10-31T11:05:09;19.40;62.76
68189;DHT22;66299;47.514;19.218;2023-10-31T11:07:40;19.51;63.11
68189;DHT22;66299;47.514;19.218;2023-10-31T11:10:11;19.77;63.94
68189;DHT22;66299;47.514;19.218;2023-10-31T11:12:40;19.59;63.57
68189;DHT22;66299;47.514;19.218;2023-10-31T11:15:13;19.69;64.26
68189;DHT22;66299;47.514;19.218;2023-10-31T11:17:44;19.93;62.32
68189;DHT22;66299;47.514;19.218;2023-10-31T11:20:15;20.06;62.09
68189;DHT22;66299;47.514;19.218;2023-10-31T11:22:45;20.05;60.52
68189;DHT22;66299;47.514;19.218;2023-10-31T11:25:18;19.99;61.79
68189;DHT22;66299;47.514;19.218;2023-10-31T11:28:11;19.74;63.52
68189;DHT22;66299;47.514;19.218;2023-10-31T11:30:40;19.51;64.90
68189;DHT22;66299;47.514;19.218;2023-10-31T11:33:14;19.19;65.37
68189;DHT22;66299;47.514;19.218;2023-10-31T11:36:05;19.11;68.95
68189;DHT22;66299;47.514;19.218;2023-10-31T11:38:37;19.14;65.37
68189;DHT22;66299;47.514;19.218;2023-10-31T11:41:06;19.11;64.65
68189;DHT22;66299;47.514;19.218;2023-10-31T11:43:50;19.17;62.65
68189;DHT22;66299;47.514;19.218;2023-10-31T11:46:18;19.06;64.80
68189;DHT22;66299;47.514;19.218;2023-10-31T11:48:49;18.80;67.82
68189;DHT22;66299;47.514;19.218;2023-10-31T11:51:19;18.62;69.09
68189;DHT22;66299;47.514;19.218;2023-10-31T11:53:48;18.49;69.43
68189;DHT22;66299;47.514;19.218;2023-10-31T11:56:17;18.45;68.82
68189;DHT22;66299;47.514;19.218;2023-10-31T11:58:55;18.40;68.53
68189;DHT22;66299;47.514;19.218;2023-10-31T12:01:25;18.44;66.98
68189;DHT22;66299;47.514;19.218;2023-10-31T12:03:56;17.77;73.32
68189;DHT22;66299;47.514;19.218;2023-10-31T12:06:27;17.61;74.73
68189;DHT22;66299;47.514;19.218;2023-10-31T12:08:59;17.46;74.70
68189;DHT22;66299;47.514;19.218;2023-10-31T12:11:29;17.52;75.99
68189;DHT22;66299;47.514;19.218;2023-10-31T12:14:00;17.50;76.02
68189;DHT22;66299;47.514;19.218;2023-10-31T12:16:31;17.42;75.83
68189;DHT22;66299;47.514;19.218;2023-10-31T12:19:04;17.31;76.27
68189;DHT22;66299;47.514;19.218;2023-10-31T12:21:37;17.14;77.96
68189;DHT22;66299;47.514;19.218;2023-10-31T12:24:08;16.90;79.59
68189;DHT22;66299;47.514;19.218;2023-10-31T12:26:38;16.60;82.16
68189;DHT22;66299;47.514;19.218;2023-10-31T12:29:08;16.61;82.85
68189;DHT22;66299;47.514;19.218;2023-10-31T12:31:43;16.46;84.45
68189;DHT22;66299;47.514;19.218;2023-10-31T12:34:16;16.30;89.56
68189;DHT22;66299;47.514;19.218;2023-10-31T12:36:46;14.99;96.95
68189;DHT22;66299;47.514;19.218;2023-10-31T12:39:18;14.41;99.77
68189;DHT22;66299;47.514;19.218;2023-10-31T12:41:49;13.51;99.99
68189;DHT22;66299;47.514;19.218;2023-10-31T12:44:23;13.04;99.99
68189;DHT22;66299;47.514;19.218;2023-10-31T12:46:52;13.20;99.99
68189;DHT22;66299;47.514;19.218;2023-10-31T12:49:22;13.32;99.77
68189;DHT22;66299;47.514;19.218;2023-10-31T12:51:58;13.37;99.66
68189;DHT22;66299;47.514;19.218;2023-10-31T12:54:29;13.48;98.44
68189;DHT22;66299;47.514;19.218;2023-10-31T12:57:02;13.48;98.93
68189;DHT22;66299;47.514;19.218;2023-10-31T12:59:32;13.45;98.79
68189;DHT22;66299;47.514;19.218;2023-10-31T13:02:01;13.55;97.97
68189;DHT22;66299;47.514;19.218;2023-10-31T13:04:32;13.41;99.28
68189;DHT22;66299;47.514;19.218;2023-10-31T13:07:02;13.40;99.99
68189;DHT22;66299;47.514;19.218;2023-10-31T13:09:31;13.34;99.99
68189;DHT22;66299;47.514;19.218;2023-10-31T13:12:00;13.38;99.99
68189;DHT22;66299;47.514;19.218;2023-10-31T13:14:30;13.40;99.99
68189;DHT22;66299;47.514;19.218;2023-10-31T13:16:58;13.37;99.99
68189;DHT22;66299;47.514;19.218;2023-10-31T13:19:28;13.42;99.99
68189;DHT22;66299;47.514;19.218;2023-10-31T13:21:59;13.47;99.99
68189;DHT22;66299;47.514;19.218;2023-10-31T13:24:28;13.30;99.99
68189;DHT22;66299;47.514;19.218;2023-10-31T13:26:58;13.44;99.99
68189;DHT22;66299;47.514;19.218;2023-10-31T13:29:28;13.40;99.99
68189;DHT22;66299;47.514;19.218;2023-10-31T13:31:57;13.37;99.99
68189;DHT22;66299;47.514;19.218;2023-10-31T13:34:26;13.35;99.99
68189;DHT22;66299;47.514;19.218;2023-10-31T13:36:55;13.31;99.99
68189;DHT22;66299;47.514;19.218;2023-10-31T13:39:24;13.32;99.99
68189;DHT22;66299;47.514;19.218;2023-10-31T13:41:53;13.32;99.99
68189;DHT22;66299;47.514;19.218;2023-10-31T13:44:21;13.40;99.99
68189;DHT22;66299;47.514;19.218;2023-10-31T13:46:50;13.35;99.99
68189;DHT22;66299;47.514;19.218;2023-10-31T13:49:19;13.32;99.99
68189;DHT22;66299;47.514;19.218;2023-10-31T13:51:48;13.34;99.99
68189;DHT22;66299;47.514;19.218;2023-10-31T13:54:17;13.31;99.99
68189;DHT22;66299;47.514;19.218;2023-10-31T13:56:48;13.25;99.99
68189;DHT22;66299;47.514;19.218;2023-10-31T13:59:16;13.21;99.99
68189;DHT22;66299;47.514;19.218;2023-10-31T14:01:47;13.13;99.99
68189;DHT22;66299;47.514;19.218;2023-10-31T14:04:18;13.20;99.43
68189;DHT22;66299;47.514;19.218;2023-10-31T14:06:47;13.14;99.33
68189;DHT22;66299;47.514;19.218;2023-10-31T14:09:16;12.99;99.97
68189;DHT22;66299;47.514;19.218;2023-10-31T14:11:45;13.07;99.37
68189;DHT22;66299;47.514;19.218;2023-10-31T14:14:15;12.94;99.99
68189;DHT22;66299;47.514;19.218;2023-10-31T14:16:44;13.00;99.99
68189;DHT22;66299;47.514;19.218;2023-10-31T14:19:13;12.90;98.49
68189;DHT22;66299;47.514;19.218;2023-10-31T14:21:46;12.75;98.30
68189;DHT22;66299;47.514;19.218;2023-10-31T14:24:14;12.70;98.20
68189;DHT22;66299;47.514;19.218;2023-10-31T14:26:43;12.59;99.12
68189;DHT22;66299;47.514;19.218;2023-10-31T14:29:17;12.46;99.77
68189;DHT22;66299;47.514;19.218;2023-10-31T14:31:46;12.49;99.93
68189;DHT22;66299;47.514;19.218;2023-10-31T14:34:14;12.41;99.99
68189;DHT22;66299;47.514;19.218;2023-10-31T14:36:43;12.39;99.91
68189;DHT22;66299;47.514;19.218;2023-10-31T14:39:11;12.35;99.99
68189;DHT22;66299;47.514;19.218;2023-10-31T14:41:40;12.32;99.58
68189;DHT22;66299;47.514;19.218;2023-10-31T14:44:08;12.28;99.99
68189;DHT22;66299;47.514;19.218;2023-10-31T14:46:38;12.25;99.78
68189;DHT22;66299;47.514;19.218;2023-10-31T14:49:06;12.15;99.99
68189;DHT22;66299;47.514;19.218;2023-10-31T14:51:35;12.20;99.99
68189;DHT22;66299;47.514;19.218;2023-10-31T14:54:05;12.20;99.99
68189;DHT22;66299;47.514;19.218;2023-10-31T14:56:34;12.21;99.99
68189;DHT22;66299;47.514;19.218;2023-10-31T14:59:04;12.15;99.99
68189;DHT22;66299;47.514;19.218;2023-10-31T15:01:41;12.10;99.99
68189;DHT22;66299;47.514;19.218;2023-10-31T15:04:10;12.24;99.99
68189;DHT22;66299;47.514;19.218;2023-10-31T15:06:39;12.15;99.99
68189;DHT22;66299;47.514;19.218;2023-10-31T15:09:08;12.22;99.99
68189;DHT22;66299;47.514;19.218;2023-10-31T15:11:36;12.15;99.99
68189;DHT22;66299;47.514;19.218;2023-10-31T15:14:04;12.15;99.99
68189;DHT22;66299;47.514;19.218;2023-10-31T15:16:33;12.20;99.99
68189;DHT22;66299;47.514;19.218;2023-10-31T15:19:03;12.17;99.99
68189;DHT22;66299;47.514;19.218;2023-10-31T15:21:36;12.17;99.99
68189;DHT22;66299;47.514;19.218;2023-10-31T15:24:06;12.13;99.99
68189;DHT22;66299;47.514;19.218;2023-10-31T15:26:37;12.04;99.99
68189;DHT22;66299;47.514;19.218;2023-10-31T15:29:07;11.99;99.99
68189;DHT22;66299;47.514;19.218;2023-10-31T15:31:36;11.91;99.99
68189;DHT22;66299;47.514;19.218;2023-10-31T15:34:07;11.78;99.99